sensor_id;sensor_type;location;lat;lon;timestamp;pressure;altitude;pressure_sealevel;temperature;humidity
14253;BME280;7210;51.502;10.722;2022-09-20T00:01:06;99846.00;;;9.11;100.00
14253;BME280;7210;51.502;10.722;2022-09-20T00:03:42;99847.03;;;9.10;100.00
14253;BME280;7210;51.502;10.722;2022-09-20T00:06:14;99833.72;;;8.98;100.00
14253;BME280;7210;51.502;10.722;2022-09-20T00:08:43;99840.00;;;8.97;100.00
14253;BME280;7210;51.502;10.722;2022-09-20T00:11:13;99830.88;;;8.93;100.00
14253;BME280;7210;51.502;10.722;2022-09-20T00:13:44;99834.16;;;8.95;100.00
14253;BME280;7210;51.502;10.722;2022-09-20T00:16:14;99834.53;;;8.92;100.00
14253;BME280;7210;51.502;10.722;2022-09-20T00:18:42;99831.75;;;8.87;100.00
14253;BME280;7210;51.502;10.722;2022-09-20T00:21:15;99831.75;;;8.81;100.00
14253;BME280;7210;51.502;10.722;2022-09-20T00:23:43;99839.09;;;8.72;100.00
14253;BME280;7210;51.502;10.722;2022-09-20T00:26:10;99837.66;;;8.76;100.00
14253;BME280;7210;51.502;10.722;2022-09-20T00:28:39;99839.47;;;8.82;100.00
14253;BME280;7210;51.502;10.722;2022-09-20T00:31:06;99827.91;;;8.83;100.00
14253;BME280;7210;51.502;10.722;2022-09-20T00:33:34;99830.09;;;8.86;100.00
14253;BME280;7210;51.502;10.722;2022-09-20T00:36:20;99830.72;;;8.88;100.00
14253;BME280;7210;51.502;10.722;2022-09-20T00:38:47;99829.28;;;8.92;100.00
14253;BME280;7210;51.502;10.722;2022-09-20T00:41:15;99830.88;;;8.93;100.00
14253;BME280;7210;51.502;10.722;2022-09-20T00:43:46;99841.81;;;9.03;100.00
14253;BME280;7210;51.502;10.722;2022-09-20T00:46:22;99844.41;;;9.10;100.00
14253;BME280;7210;51.502;10.722;2022-09-20T00:48:55;99839.69;;;9.18;100.00
14253;BME280;7210;51.502;10.722;2022-09-20T00:51:33;99845.97;;;9.24;100.00
14253;BME280;7210;51.502;10.722;2022-09-20T00:54:04;99850.41;;;9.30;100.00
14253;BME280;7210;51.502;10.722;2022-09-20T00:56:38;99838.75;;;9.37;100.00
14253;BME280;7210;51.502;10.722;2022-09-20T00:59:14;99838.75;;;9.37;100.00
14253;BME280;7210;51.502;10.722;2022-09-20T01:01:45;99840.38;;;9.38;100.00
14253;BME280;7210;51.502;10.722;2022-09-20T01:04:24;99839.59;;;9.38;100.00
14253;BME280;7210;51.502;10.722;2022-09-20T01:06:58;99833.50;;;9.37;100.00
14253;BME280;7210;51.502;10.722;2022-09-20T01:09:27;99844.47;;;9.34;100.00
14253;BME280;7210;51.502;10.722;2022-09-20T01:11:56;99842.25;;;9.31;100.00
14253;BME280;7210;51.502;10.722;2022-09-20T01:14:25;99844.09;;;9.31;100.00
14253;BME280;7210;51.502;10.722;2022-09-20T01:16:56;99839.19;;;9.34;100.00
14253;BME280;7210;51.502;10.722;2022-09-20T01:19:36;99839.19;;;9.34;100.00
14253;BME280;7210;51.502;10.722;2022-09-20T01:22:20;99845.06;;;9.36;100.00
14253;BME280;7210;51.502;10.722;2022-09-20T01:24:56;99844.63;;;9.39;100.00
14253;BME280;7210;51.502;10.722;2022-09-20T01:27:40;99847.41;;;9.51;100.00
14253;BME280;7210;51.502;10.722;2022-09-20T01:30:12;99848.81;;;9.53;100.00
14253;BME280;7210;51.502;10.722;2022-09-20T01:33:06;99841.47;;;9.55;100.00
14253;BME280;7210;51.502;10.722;2022-09-20T01:35:35;99848.09;;;9.64;100.00
14253;BME280;7210;51.502;10.722;2022-09-20T01:38:31;99846.66;;;9.68;100.00
14253;BME280;7210;51.502;10.722;2022-09-20T01:41:07;99851.50;;;9.71;100.00
14253;BME280;7210;51.502;10.722;2022-09-20T01:43:47;99830.81;;;9.68;100.00
14253;BME280;7210;51.502;10.722;2022-09-20T01:46:28;99854.50;;;9.81;100.00
14253;BME280;7210;51.502;10.722;2022-09-20T01:49:18;99846.97;;;9.85;100.00
14253;BME280;7210;51.502;10.722;2022-09-20T02:02:07;99838.75;;;9.68;100.00
14253;BME280;7210;51.502;10.722;2022-09-20T02:05:05;99851.50;;;9.71;100.00
14253;BME280;7210;51.502;10.722;2022-09-20T02:08:28;99847.63;;;9.74;100.00
14253;BME280;7210;51.502;10.722;2022-09-20T02:14:35;99833.75;;;9.85;100.00
14253;BME280;7210;51.502;10.722;2022-09-20T02:17:13;99830.66;;;9.88;100.00
14253;BME280;7210;51.502;10.722;2022-09-20T02:20:00;99832.28;;;9.89;100.00
14253;BME280;7210;51.502;10.722;2022-09-20T02:22:47;99835.88;;;9.94;100.00
14253;BME280;7210;51.502;10.722;2022-09-20T02:25:48;99829.56;;;9.95;100.00
14253;BME280;7210;51.502;10.722;2022-09-20T02:28:30;99832.81;;;9.97;100.00
14253;BME280;7210;51.502;10.722;2022-09-20T02:31:15;99838.50;;;10.01;100.00
14253;BME280;7210;51.502;10.722;2022-09-20T02:34:38;99832.59;;;9.99;100.00
14253;BME280;7210;51.502;10.722;2022-09-20T02:37:28;99819.59;;;10.04;100.00
14253;BME280;7210;51.502;10.722;2022-09-20T02:40:19;99826.47;;;10.05;100.00
14253;BME280;7210;51.502;10.722;2022-09-20T02:43:00;99828.94;;;10.00;100.00
14253;BME280;7210;51.502;10.722;2022-09-20T02:45:38;99824.91;;;9.97;100.00
14253;BME280;7210;51.502;10.722;2022-09-20T02:48:09;99828.41;;;9.91;100.00
14253;BME280;7210;51.502;10.722;2022-09-20T02:50:48;99835.94;;;9.88;100.00
14253;BME280;7210;51.502;10.722;2022-09-20T02:53:34;99838.41;;;9.83;100.00
14253;BME280;7210;51.502;10.722;2022-09-20T02:56:12;99822.72;;;9.70;100.00
14253;BME280;7210;51.502;10.722;2022-09-20T02:58:54;99836.09;;;9.68;100.00
14253;BME280;7210;51.502;10.722;2022-09-20T03:01:38;99841.22;;;9.63;100.00
14253;BME280;7210;51.502;10.722;2022-09-20T03:04:24;99840.69;;;9.55;100.00
14253;BME280;7210;51.502;10.722;2022-09-20T03:07:02;99840.72;;;9.48;100.00
14253;BME280;7210;51.502;10.722;2022-09-20T03:09:41;99851.31;;;9.42;100.00
14253;BME280;7210;51.502;10.722;2022-09-20T03:12:21;99852.16;;;9.36;100.00
14253;BME280;7210;51.502;10.722;2022-09-20T03:15:03;99850.75;;;9.33;100.00
14253;BME280;7210;51.502;10.722;2022-09-20T03:17:46;99857.47;;;9.29;100.00
14253;BME280;7210;51.502;10.722;2022-09-20T03:20:28;99857.31;;;9.24;100.00
14253;BME280;7210;51.502;10.722;2022-09-20T03:23:12;99857.72;;;9.21;100.00
14253;BME280;7210;51.502;10.722;2022-09-20T03:25:54;99856.13;;;9.14;100.00
14253;BME280;7210;51.502;10.722;2022-09-20T03:28:52;99857.19;;;9.06;100.00
14253;BME280;7210;51.502;10.722;2022-09-20T03:31:44;99854.38;;;9.01;100.00
14253;BME280;7210;51.502;10.722;2022-09-20T03:34:31;99856.41;;;8.99;100.00
14253;BME280;7210;51.502;10.722;2022-09-20T03:37:28;99854.03;;;8.91;100.00
14253;BME280;7210;51.502;10.722;2022-09-20T03:40:43;99864.19;;;8.88;100.00
14253;BME280;7210;51.502;10.722;2022-09-20T03:43:35;99867.88;;;8.80;100.00
14253;BME280;7210;51.502;10.722;2022-09-20T03:46:17;99861.97;;;8.78;100.00
14253;BME280;7210;51.502;10.722;2022-09-20T03:49:11;99864.63;;;8.72;100.00
14253;BME280;7210;51.502;10.722;2022-09-20T03:51:54;99859.16;;;8.73;100.00
14253;BME280;7210;51.502;10.722;2022-09-20T03:55:08;99865.22;;;8.80;100.00
14253;BME280;7210;51.502;10.722;2022-09-20T03:58:08;99858.13;;;8.81;100.00
14253;BME280;7210;51.502;10.722;2022-09-20T04:01:00;99860.16;;;8.79;100.00
14253;BME280;7210;51.502;10.722;2022-09-20T04:03:40;99852.47;;;8.71;100.00
14253;BME280;7210;51.502;10.722;2022-09-20T04:06:36;99859.41;;;8.65;100.00
14253;BME280;7210;51.502;10.722;2022-09-20T04:09:38;99860.81;;;8.61;100.00
14253;BME280;7210;51.502;10.722;2022-09-20T04:12:27;99858.19;;;8.61;100.00
14253;BME280;7210;51.502;10.722;2022-09-20T04:15:27;99863.44;;;8.61;100.00
14253;BME280;7210;51.502;10.722;2022-09-20T04:18:06;99862.66;;;8.61;100.00
14253;BME280;7210;51.502;10.722;2022-09-20T04:20:45;99864.88;;;8.64;100.00
14253;BME280;7210;51.502;10.722;2022-09-20T04:23:28;99862.84;;;8.59;100.00
14253;BME280;7210;51.502;10.722;2022-09-20T04:26:02;99862.66;;;8.54;100.00
14253;BME280;7210;51.502;10.722;2022-09-20T04:28:38;99866.13;;;8.55;100.00
14253;BME280;7210;51.502;10.722;2022-09-20T04:31:26;99857.22;;;8.49;100.00
14253;BME280;7210;51.502;10.722;2022-09-20T04:33:58;99864.66;;;8.59;100.00
14253;BME280;7210;51.502;10.722;2022-09-20T04:36:56;99874.81;;;8.62;100.00
14253;BME280;7210;51.502;10.722;2022-09-20T04:39:38;99866.69;;;8.63;100.00
14253;BME280;7210;51.502;10.722;2022-09-20T04:42:39;99872.34;;;8.67;100.00
14253;BME280;7210;51.502;10.722;2022-09-20T04:45:58;99875.78;;;8.74;100.00
14253;BME280;7210;51.502;10.722;2022-09-20T04:49:09;99892.19;;;8.82;100.00
14253;BME280;7210;51.502;10.722;2022-09-20T04:52:27;99896.00;;;8.86;100.00
14253;BME280;7210;51.502;10.722;2022-09-20T04:55:49;99894.00;;;8.88;100.00
14253;BME280;7210;51.502;10.722;2022-09-20T04:58:43;99897.44;;;8.89;100.00
14253;BME280;7210;51.502;10.722;2022-09-20T05:05:48;99903.13;;;8.86;100.00
14253;BME280;7210;51.502;10.722;2022-09-20T05:12:31;99907.81;;;8.84;100.00
14253;BME280;7210;51.502;10.722;2022-09-20T05:15:29;99917.53;;;8.83;100.00
14253;BME280;7210;51.502;10.722;2022-09-20T05:18:37;99906.16;;;8.89;100.00
14253;BME280;7210;51.502;10.722;2022-09-20T05:21:44;99909.97;;;8.93;100.00
14253;BME280;7210;51.502;10.722;2022-09-20T05:25:06;99910.78;;;9.00;100.00
14253;BME280;7210;51.502;10.722;2022-09-20T05:27:46;99910.53;;;9.08;100.00
14253;BME280;7210;51.502;10.722;2022-09-20T05:30:29;99916.19;;;9.18;100.00
14253;BME280;7210;51.502;10.722;2022-09-20T05:33:14;99922.84;;;9.27;100.00
14253;BME280;7210;51.502;10.722;2022-09-20T05:35:58;99928.91;;;9.34;100.00
14253;BME280;7210;51.502;10.722;2022-09-20T05:38:43;99921.00;;;9.34;100.00
14253;BME280;7210;51.502;10.722;2022-09-20T05:41:28;99911.88;;;9.30;100.00
14253;BME280;7210;51.502;10.722;2022-09-20T05:44:10;99927.22;;;9.46;100.00
14253;BME280;7210;51.502;10.722;2022-09-20T05:46:56;99927.22;;;9.46;100.00
14253;BME280;7210;51.502;10.722;2022-09-20T05:49:45;99930.44;;;9.48;100.00
14253;BME280;7210;51.502;10.722;2022-09-20T05:52:40;99937.75;;;9.46;100.00
14253;BME280;7210;51.502;10.722;2022-09-20T05:55:47;99938.97;;;9.50;100.00
14253;BME280;7210;51.502;10.722;2022-09-20T05:58:37;99922.63;;;9.66;100.00
14253;BME280;7210;51.502;10.722;2022-09-20T06:01:17;99932.69;;;9.82;100.00
14253;BME280;7210;51.502;10.722;2022-09-20T06:03:54;99933.03;;;9.92;100.00
14253;BME280;7210;51.502;10.722;2022-09-20T06:06:30;99942.28;;;10.01;100.00
14253;BME280;7210;51.502;10.722;2022-09-20T06:10:04;99947.56;;;10.01;100.00
14253;BME280;7210;51.502;10.722;2022-09-20T06:12:51;99953.31;;;9.98;100.00
14253;BME280;7210;51.502;10.722;2022-09-20T06:15:30;99947.19;;;9.98;100.00
14253;BME280;7210;51.502;10.722;2022-09-20T06:18:25;99952.97;;;9.88;100.00
14253;BME280;7210;51.502;10.722;2022-09-20T06:21:08;99950.16;;;9.83;100.00
14253;BME280;7210;51.502;10.722;2022-09-20T06:23:41;99945.66;;;9.84;100.00
14253;BME280;7210;51.502;10.722;2022-09-20T06:26:15;99956.34;;;9.95;100.00
14253;BME280;7210;51.502;10.722;2022-09-20T06:28:48;99952.03;;;10.07;100.00
14253;BME280;7210;51.502;10.722;2022-09-20T06:31:17;99956.84;;;10.17;100.00
14253;BME280;7210;51.502;10.722;2022-09-20T06:33:50;99959.22;;;10.25;100.00
14253;BME280;7210;51.502;10.722;2022-09-20T06:36:24;99956.69;;;10.36;100.00
14253;BME280;7210;51.502;10.722;2022-09-20T06:39:20;99960.25;;;10.48;100.00
14253;BME280;7210;51.502;10.722;2022-09-20T06:42:11;99963.91;;;10.47;100.00
14253;BME280;7210;51.502;10.722;2022-09-20T06:44:42;99969.78;;;10.49;100.00
14253;BME280;7210;51.502;10.722;2022-09-20T06:47:11;99952.78;;;10.63;100.00
14253;BME280;7210;51.502;10.722;2022-09-20T06:49:39;99961.63;;;10.75;100.00
14253;BME280;7210;51.502;10.722;2022-09-20T06:52:11;99959.56;;;10.95;100.00
14253;BME280;7210;51.502;10.722;2022-09-20T06:54:42;99947.53;;;10.99;100.00
14253;BME280;7210;51.502;10.722;2022-09-20T06:57:13;99959.59;;;11.13;100.00
14253;BME280;7210;51.502;10.722;2022-09-20T06:59:43;99946.00;;;11.10;100.00
14253;BME280;7210;51.502;10.722;2022-09-20T07:02:10;99960.75;;;11.17;100.00
14253;BME280;7210;51.502;10.722;2022-09-20T07:04:37;99965.38;;;11.04;100.00
14253;BME280;7210;51.502;10.722;2022-09-20T07:07:06;99963.69;;;10.91;100.00
14253;BME280;7210;51.502;10.722;2022-09-20T07:09:34;99962.97;;;10.84;100.00
14253;BME280;7210;51.502;10.722;2022-09-20T07:12:02;99960.31;;;10.84;100.00
14253;BME280;7210;51.502;10.722;2022-09-20T07:14:29;99957.09;;;10.82;100.00
14253;BME280;7210;51.502;10.722;2022-09-20T07:16:58;99963.69;;;10.91;100.00
14253;BME280;7210;51.502;10.722;2022-09-20T07:19:25;99974.56;;;11.01;100.00
14253;BME280;7210;51.502;10.722;2022-09-20T07:21:52;99958.13;;;10.99;100.00
14253;BME280;7210;51.502;10.722;2022-09-20T07:24:20;99974.56;;;11.19;100.00
14253;BME280;7210;51.502;10.722;2022-09-20T07:26:54;99982.00;;;11.28;100.00
14253;BME280;7210;51.502;10.722;2022-09-20T07:29:22;99985.59;;;11.34;100.00
14253;BME280;7210;51.502;10.722;2022-09-20T07:31:50;99989.72;;;11.30;100.00
14253;BME280;7210;51.502;10.722;2022-09-20T07:34:19;99992.75;;;11.33;100.00
14253;BME280;7210;51.502;10.722;2022-09-20T07:36:46;99991.50;;;11.36;100.00
14253;BME280;7210;51.502;10.722;2022-09-20T07:39:18;99989.44;;;11.38;100.00
14253;BME280;7210;51.502;10.722;2022-09-20T07:41:45;99988.69;;;11.31;100.00
14253;BME280;7210;51.502;10.722;2022-09-20T07:44:13;99989.88;;;11.35;100.00
14253;BME280;7210;51.502;10.722;2022-09-20T07:46:56;99983.53;;;11.54;100.00
14253;BME280;7210;51.502;10.722;2022-09-20T07:49:26;99985.31;;;11.60;100.00
14253;BME280;7210;51.502;10.722;2022-09-20T07:51:55;99998.00;;;11.69;100.00
14253;BME280;7210;51.502;10.722;2022-09-20T07:54:23;99991.19;;;11.62;100.00
14253;BME280;7210;51.502;10.722;2022-09-20T07:56:52;99993.25;;;11.60;100.00
14253;BME280;7210;51.502;10.722;2022-09-20T07:59:19;99996.31;;;11.75;100.00
14253;BME280;7210;51.502;10.722;2022-09-20T08:01:47;100001.75;;;11.80;100.00
14253;BME280;7210;51.502;10.722;2022-09-20T08:04:14;100005.78;;;11.82;100.00
14253;BME280;7210;51.502;10.722;2022-09-20T08:06:44;100006.72;;;11.88;100.00
14253;BME280;7210;51.502;10.722;2022-09-20T08:09:12;100011.13;;;11.94;100.00
14253;BME280;7210;51.502;10.722;2022-09-20T08:11:41;100014.44;;;12.19;100.00
14253;BME280;7210;51.502;10.722;2022-09-20T08:14:13;100017.03;;;12.37;100.00
14253;BME280;7210;51.502;10.722;2022-09-20T08:16:44;100022.09;;;12.50;100.00
14253;BME280;7210;51.502;10.722;2022-09-20T08:19:15;100015.69;;;12.69;100.00
14253;BME280;7210;51.502;10.722;2022-09-20T08:21:44;100013.75;;;12.76;100.00
14253;BME280;7210;51.502;10.722;2022-09-20T08:24:12;100013.97;;;12.86;99.92
14253;BME280;7210;51.502;10.722;2022-09-20T08:26:41;100014.88;;;12.91;99.00
14253;BME280;7210;51.502;10.722;2022-09-20T08:29:10;100019.88;;;12.99;98.00
14253;BME280;7210;51.502;10.722;2022-09-20T08:31:39;100016.03;;;12.84;96.82
14253;BME280;7210;51.502;10.722;2022-09-20T08:34:09;100016.41;;;12.76;95.96
14253;BME280;7210;51.502;10.722;2022-09-20T08:36:40;100005.44;;;12.72;95.01
14253;BME280;7210;51.502;10.722;2022-09-20T08:39:13;100012.91;;;12.64;94.06
14253;BME280;7210;51.502;10.722;2022-09-20T08:41:45;100011.88;;;12.65;93.95
14253;BME280;7210;51.502;10.722;2022-09-20T08:44:20;100012.78;;;12.70;94.22
14253;BME280;7210;51.502;10.722;2022-09-20T08:47:05;100012.22;;;12.80;94.63
14253;BME280;7210;51.502;10.722;2022-09-20T08:49:35;100013.13;;;12.74;94.39
14253;BME280;7210;51.502;10.722;2022-09-20T08:52:03;100017.09;;;12.83;94.44
14253;BME280;7210;51.502;10.722;2022-09-20T08:54:34;100017.09;;;12.83;94.45
14253;BME280;7210;51.502;10.722;2022-09-20T08:57:03;100016.63;;;12.86;94.23
14253;BME280;7210;51.502;10.722;2022-09-20T08:59:35;100013.16;;;12.97;94.07
14253;BME280;7210;51.502;10.722;2022-09-20T09:02:02;100013.28;;;13.13;94.73
14253;BME280;7210;51.502;10.722;2022-09-20T09:04:35;100016.03;;;13.30;93.42
14253;BME280;7210;51.502;10.722;2022-09-20T09:07:02;100015.00;;;13.31;92.91
14253;BME280;7210;51.502;10.722;2022-09-20T09:09:36;100019.38;;;13.37;92.66
14253;BME280;7210;51.502;10.722;2022-09-20T09:12:17;100018.09;;;13.39;92.55
14253;BME280;7210;51.502;10.722;2022-09-20T09:14:45;100024.69;;;13.37;92.48
14253;BME280;7210;51.502;10.722;2022-09-20T09:17:20;100026.03;;;13.51;92.20
14253;BME280;7210;51.502;10.722;2022-09-20T09:19:50;100021.41;;;13.58;92.01
14253;BME280;7210;51.502;10.722;2022-09-20T09:22:23;100023.00;;;13.59;90.77
14253;BME280;7210;51.502;10.722;2022-09-20T09:25:25;100025.44;;;13.60;90.01
14253;BME280;7210;51.502;10.722;2022-09-20T09:27:59;100028.22;;;13.65;89.07
14253;BME280;7210;51.502;10.722;2022-09-20T09:30:30;100019.22;;;13.83;89.03
14253;BME280;7210;51.502;10.722;2022-09-20T09:33:24;100025.59;;;14.10;88.77
14253;BME280;7210;51.502;10.722;2022-09-20T09:35:59;100030.44;;;14.13;87.29
14253;BME280;7210;51.502;10.722;2022-09-20T09:38:33;100026.63;;;14.20;85.75
14253;BME280;7210;51.502;10.722;2022-09-20T09:41:05;100023.59;;;14.17;83.28
14253;BME280;7210;51.502;10.722;2022-09-20T09:43:37;100032.94;;;14.31;81.30
14253;BME280;7210;51.502;10.722;2022-09-20T09:46:19;100021.38;;;14.25;81.41
14253;BME280;7210;51.502;10.722;2022-09-20T09:49:08;100024.00;;;14.09;79.82
14253;BME280;7210;51.502;10.722;2022-09-20T09:51:38;100024.53;;;13.83;79.40
14253;BME280;7210;51.502;10.722;2022-09-20T09:54:16;100020.88;;;13.84;80.90
14253;BME280;7210;51.502;10.722;2022-09-20T09:57:03;100026.97;;;13.84;81.29
14253;BME280;7210;51.502;10.722;2022-09-20T09:59:52;100022.38;;;13.80;82.18
14253;BME280;7210;51.502;10.722;2022-09-20T10:02:56;100029.97;;;13.88;82.75
14253;BME280;7210;51.502;10.722;2022-09-20T10:05:33;100030.59;;;14.06;83.23
14253;BME280;7210;51.502;10.722;2022-09-20T10:08:17;100033.97;;;14.02;82.98
14253;BME280;7210;51.502;10.722;2022-09-20T10:11:02;100039.72;;;14.10;83.34
14253;BME280;7210;51.502;10.722;2022-09-20T10:13:43;100040.28;;;14.12;83.72
14253;BME280;7210;51.502;10.722;2022-09-20T10:16:27;100041.88;;;14.13;84.05
14253;BME280;7210;51.502;10.722;2022-09-20T10:19:18;100038.13;;;13.98;84.19
14253;BME280;7210;51.502;10.722;2022-09-20T10:22:00;100043.94;;;13.95;84.44
14253;BME280;7210;51.502;10.722;2022-09-20T10:24:42;100030.63;;;13.95;85.09
14253;BME280;7210;51.502;10.722;2022-09-20T10:27:29;100047.91;;;14.20;85.08
14253;BME280;7210;51.502;10.722;2022-09-20T10:30:09;100049.63;;;14.43;84.89
14253;BME280;7210;51.502;10.722;2022-09-20T10:32:59;100051.72;;;14.41;83.00
14253;BME280;7210;51.502;10.722;2022-09-20T10:35:44;100052.03;;;14.16;82.50
14253;BME280;7210;51.502;10.722;2022-09-20T10:38:16;100038.19;;;14.14;83.30
14253;BME280;7210;51.502;10.722;2022-09-20T10:41:13;100053.81;;;14.11;82.73
14253;BME280;7210;51.502;10.722;2022-09-20T10:44:09;100060.41;;;14.08;83.29
14253;BME280;7210;51.502;10.722;2022-09-20T10:46:54;100063.38;;;14.12;84.23
14253;BME280;7210;51.502;10.722;2022-09-20T10:49:34;100066.63;;;13.86;84.55
14253;BME280;7210;51.502;10.722;2022-09-20T10:52:29;100052.53;;;13.74;85.21
14253;BME280;7210;51.502;10.722;2022-09-20T10:55:23;100062.25;;;13.80;85.53
14253;BME280;7210;51.502;10.722;2022-09-20T10:58:28;100066.19;;;13.66;84.85
14253;BME280;7210;51.502;10.722;2022-09-20T11:01:07;100059.38;;;13.70;85.21
14253;BME280;7210;51.502;10.722;2022-09-20T11:04:00;100074.97;;;13.78;84.74
14253;BME280;7210;51.502;10.722;2022-09-20T11:06:49;100075.75;;;13.78;83.82
14253;BME280;7210;51.502;10.722;2022-09-20T11:09:21;100072.19;;;13.73;83.38
14253;BME280;7210;51.502;10.722;2022-09-20T11:11:54;100070.69;;;13.77;82.12
14253;BME280;7210;51.502;10.722;2022-09-20T11:14:31;100077.50;;;13.73;81.32
14253;BME280;7210;51.502;10.722;2022-09-20T11:17:09;100067.75;;;13.90;81.56
14253;BME280;7210;51.502;10.722;2022-09-20T11:19:52;100072.75;;;14.14;81.05
14253;BME280;7210;51.502;10.722;2022-09-20T11:22:27;100071.59;;;14.22;80.34
14253;BME280;7210;51.502;10.722;2022-09-20T11:25:03;100069.69;;;14.34;80.22
14253;BME280;7210;51.502;10.722;2022-09-20T11:27:43;100063.47;;;14.45;79.43
14253;BME280;7210;51.502;10.722;2022-09-20T11:30:16;100066.72;;;14.47;77.55
14253;BME280;7210;51.502;10.722;2022-09-20T11:32:50;100055.69;;;14.55;77.49
14253;BME280;7210;51.502;10.722;2022-09-20T11:35:29;100065.13;;;14.79;76.63
14253;BME280;7210;51.502;10.722;2022-09-20T11:38:11;100062.44;;;15.12;77.40
14253;BME280;7210;51.502;10.722;2022-09-20T11:40:47;100063.56;;;15.32;76.30
14253;BME280;7210;51.502;10.722;2022-09-20T11:43:18;100065.56;;;15.41;76.50
14253;BME280;7210;51.502;10.722;2022-09-20T11:45:54;100052.56;;;15.45;75.77
14253;BME280;7210;51.502;10.722;2022-09-20T11:48:28;100057.19;;;15.33;74.35
14253;BME280;7210;51.502;10.722;2022-09-20T11:51:49;100065.84;;;15.61;75.01
14253;BME280;7210;51.502;10.722;2022-09-20T11:57:41;100051.91;;;15.54;73.43
14253;BME280;7210;51.502;10.722;2022-09-20T12:00:10;100057.66;;;15.68;72.94
14253;BME280;7210;51.502;10.722;2022-09-20T12:02:47;100063.41;;;15.81;74.25
14253;BME280;7210;51.502;10.722;2022-09-20T12:05:32;100060.47;;;16.04;74.25
14253;BME280;7210;51.502;10.722;2022-09-20T12:08:06;100066.88;;;16.03;72.52
14253;BME280;7210;51.502;10.722;2022-09-20T12:10:38;100063.16;;;16.04;71.41
14253;BME280;7210;51.502;10.722;2022-09-20T12:13:22;100069.25;;;15.78;71.06
14253;BME280;7210;51.502;10.722;2022-09-20T12:16:02;100074.44;;;15.68;71.30
14253;BME280;7210;51.502;10.722;2022-09-20T12:18:44;100079.09;;;15.35;69.94
14253;BME280;7210;51.502;10.722;2022-09-20T12:21:18;100065.38;;;14.94;71.16
14253;BME280;7210;51.502;10.722;2022-09-20T12:24:17;100070.31;;;14.69;74.15
14253;BME280;7210;51.502;10.722;2022-09-20T12:26:51;100081.56;;;14.43;77.41
14253;BME280;7210;51.502;10.722;2022-09-20T12:30:14;100083.25;;;13.93;80.84
14253;BME280;7210;51.502;10.722;2022-09-20T12:32:49;100082.06;;;13.61;82.77
14253;BME280;7210;51.502;10.722;2022-09-20T12:35:58;100084.50;;;13.28;84.88
14253;BME280;7210;51.502;10.722;2022-09-20T12:38:46;100076.31;;;13.18;86.45
14253;BME280;7210;51.502;10.722;2022-09-20T12:41:18;100076.09;;;13.31;87.74
14253;BME280;7210;51.502;10.722;2022-09-20T12:44:19;100073.72;;;13.69;88.13
14253;BME280;7210;51.502;10.722;2022-09-20T12:46:55;100068.41;;;13.97;87.71
14253;BME280;7210;51.502;10.722;2022-09-20T12:49:39;100068.53;;;14.02;86.27
14253;BME280;7210;51.502;10.722;2022-09-20T12:52:45;100080.50;;;14.16;84.94
14253;BME280;7210;51.502;10.722;2022-09-20T12:55:52;100080.31;;;14.34;84.59
14253;BME280;7210;51.502;10.722;2022-09-20T12:58:38;100087.75;;;14.48;84.13
14253;BME280;7210;51.502;10.722;2022-09-20T13:01:36;100080.47;;;14.72;82.63
14253;BME280;7210;51.502;10.722;2022-09-20T13:04:48;100078.91;;;14.76;80.57
14253;BME280;7210;51.502;10.722;2022-09-20T13:07:42;100054.56;;;14.67;80.22
14253;BME280;7210;51.502;10.722;2022-09-20T13:10:22;100069.72;;;14.67;79.24
14253;BME280;7210;51.502;10.722;2022-09-20T13:13:03;100071.81;;;14.65;78.89
14253;BME280;7210;51.502;10.722;2022-09-20T13:15:34;100082.47;;;14.65;79.44
14253;BME280;7210;51.502;10.722;2022-09-20T13:18:04;100080.03;;;14.19;79.57
14253;BME280;7210;51.502;10.722;2022-09-20T13:20:33;100083.66;;;13.73;80.09
14253;BME280;7210;51.502;10.722;2022-09-20T13:23:03;100083.34;;;13.47;81.74
14253;BME280;7210;51.502;10.722;2022-09-20T13:25:38;100085.78;;;13.37;83.25
14253;BME280;7210;51.502;10.722;2022-09-20T13:28:17;100079.78;;;13.18;84.60
14253;BME280;7210;51.502;10.722;2022-09-20T13:30:49;100081.84;;;13.05;85.84
14253;BME280;7210;51.502;10.722;2022-09-20T13:33:22;100077.47;;;12.99;86.78
14253;BME280;7210;51.502;10.722;2022-09-20T13:35:52;100079.19;;;13.05;87.73
14253;BME280;7210;51.502;10.722;2022-09-20T13:38:26;100075.28;;;13.19;87.95
14253;BME280;7210;51.502;10.722;2022-09-20T13:41:03;100073.78;;;13.34;86.98
14253;BME280;7210;51.502;10.722;2022-09-20T13:43:43;100072.81;;;13.52;85.83
14253;BME280;7210;51.502;10.722;2022-09-20T13:46:15;100075.22;;;13.65;84.28
14253;BME280;7210;51.502;10.722;2022-09-20T13:48:46;100076.00;;;13.77;84.79
14253;BME280;7210;51.502;10.722;2022-09-20T13:51:19;100071.44;;;13.89;84.58
14253;BME280;7210;51.502;10.722;2022-09-20T13:53:46;100072.94;;;13.96;83.36
14253;BME280;7210;51.502;10.722;2022-09-20T13:56:20;100082.16;;;14.05;83.74
14253;BME280;7210;51.502;10.722;2022-09-20T13:58:49;100072.53;;;14.16;83.66
14253;BME280;7210;51.502;10.722;2022-09-20T14:01:29;100068.75;;;14.40;83.77
14253;BME280;7210;51.502;10.722;2022-09-20T14:04:02;100082.38;;;14.60;83.42
14253;BME280;7210;51.502;10.722;2022-09-20T14:06:31;100077.25;;;14.70;83.43
14253;BME280;7210;51.502;10.722;2022-09-20T14:09:03;100082.31;;;14.71;83.12
14253;BME280;7210;51.502;10.722;2022-09-20T14:11:32;100079.25;;;14.63;81.95
14253;BME280;7210;51.502;10.722;2022-09-20T14:14:04;100073.09;;;14.62;81.61
14253;BME280;7210;51.502;10.722;2022-09-20T14:16:38;100066.50;;;14.65;81.63
14253;BME280;7210;51.502;10.722;2022-09-20T14:19:11;100072.63;;;14.82;81.92
14253;BME280;7210;51.502;10.722;2022-09-20T14:21:41;100082.31;;;14.88;81.90
14253;BME280;7210;51.502;10.722;2022-09-20T14:24:27;100072.88;;;14.97;81.21
14253;BME280;7210;51.502;10.722;2022-09-20T14:27:14;100066.16;;;15.11;80.84